Time;durP1;ratioP1;P1;durP2;ratioP2;P2;SDS_P1;SDS_P2;PMS_P1;PMS_P2;Temp;Humidity;BMP_temperature;BMP_pressure;BME280_temperature;BME280_humidity;BME280_pressure;Samples;Min_cycle;Max_cycle;Signal;HPM_P1;HPM_P2
2022/03/14 00:00:12;;;;;;;49.15;43.83;;;;;;;-1.31;58.07;96126.94;5080740;28;20199;-68
2022/03/14 00:02:39;;;;;;;50.83;43.40;;;;;;;-1.30;57.89;96129.41;5098161;28;20200;-68
2022/03/14 00:05:06;;;;;;;47.97;42.50;;;;;;;-1.30;58.45;96132.13;5080393;28;20583;-67
2022/03/14 00:07:35;;;;;;;47.03;41.70;;;;;;;-1.35;58.35;96129.34;5080324;28;20196;-67
2022/03/14 00:10:03;;;;;;;43.88;39.13;;;;;;;-1.39;58.07;96128.19;5097892;28;20188;-67
2022/03/14 00:12:31;;;;;;;45.97;41.13;;;;;;;-1.46;57.82;96135.69;5080049;28;20622;-68
2022/03/14 00:14:59;;;;;;;46.75;41.05;;;;;;;-1.51;58.08;96133.75;5079983;28;20644;-68
2022/03/14 00:17:26;;;;;;;45.75;40.97;;;;;;;-1.52;57.88;96139.41;5079839;28;20226;-67
2022/03/14 00:19:54;;;;;;;43.28;38.78;;;;;;;-1.58;57.96;96143.13;5080372;28;20211;-67
2022/03/14 00:22:22;;;;;;;42.72;38.15;;;;;;;-1.61;57.83;96140.91;5097749;28;20208;-67
2022/03/14 00:24:49;;;;;;;41.90;37.38;;;;;;;-1.60;57.66;96134.41;5098160;28;20238;-67
2022/03/14 00:27:17;;;;;;;43.67;39.13;;;;;;;-1.58;57.25;96145.81;5097449;28;20605;-67
2022/03/14 00:29:44;;;;;;;43.58;39.03;;;;;;;-1.55;57.83;96142.63;5079982;28;20228;-67
2022/03/14 00:32:11;;;;;;;46.25;41.30;;;;;;;-1.53;57.63;96141.28;5080062;28;20203;-67
2022/03/14 00:34:38;;;;;;;43.90;39.28;;;;;;;-1.59;57.98;96139.59;5097665;28;20184;-67
2022/03/14 00:37:05;;;;;;;42.70;38.30;;;;;;;-1.64;57.90;96149.50;5097557;28;20184;-67
2022/03/14 00:39:32;;;;;;;41.60;37.35;;;;;;;-1.67;58.02;96148.16;5097439;28;20185;-67
2022/03/14 00:41:59;;;;;;;40.13;35.92;;;;;;;-1.75;57.75;96146.66;5097362;28;20220;-67
2022/03/14 00:44:27;;;;;;;41.22;37.10;;;;;;;-1.76;57.85;96146.91;5097460;28;20242;-67
2022/03/14 00:46:55;;;;;;;40.58;36.40;;;;;;;-1.79;58.07;96148.22;5079705;28;20199;-68
2022/03/14 00:49:21;;;;;;;41.15;36.65;;;;;;;-1.78;58.27;96151.75;5097287;28;20276;-68
2022/03/14 00:51:48;;;;;;;41.20;36.95;;;;;;;-1.72;57.98;96158.88;5079015;28;20622;-67
2022/03/14 00:54:15;;;;;;;45.90;41.08;;;;;;;-1.74;58.42;96158.31;5079485;28;20197;-67
2022/03/14 00:56:42;;;;;;;41.95;37.53;;;;;;;-1.74;58.52;96161.03;5079415;28;20205;-67
2022/03/14 00:59:08;;;;;;;39.47;35.45;;;;;;;-1.74;58.25;96167.25;5097094;28;20196;-67
2022/03/14 01:01:37;;;;;;;38.15;34.15;;;;;;;-1.76;58.58;96163.97;5079349;28;20216;-67
2022/03/14 01:04:04;;;;;;;38.67;34.80;;;;;;;-1.83;58.83;96166.03;5079783;28;20199;-67
2022/03/14 01:06:31;;;;;;;34.13;30.85;;;;;;;-1.90;58.48;96168.06;5078985;28;20188;-68
2022/03/14 01:08:57;;;;;;;33.53;30.13;;;;;;;-1.94;58.87;96166.94;5096965;28;20207;-67
2022/03/14 01:11:24;;;;;;;33.38;30.08;;;;;;;-1.94;59.02;96170.44;5096887;28;20189;-67
2022/03/14 01:13:51;;;;;;;33.80;30.40;;;;;;;-1.88;58.74;96176.78;5078888;28;20658;-67
2022/03/14 01:16:18;;;;;;;29.17;26.40;;;;;;;-1.87;57.64;96172.19;5096918;28;20185;-67
2022/03/14 01:18:46;;;;;;;29.38;26.40;;;;;;;-1.91;57.22;96171.84;5079210;28;20207;-67
2022/03/14 01:21:13;;;;;;;29.98;26.98;;;;;;;-1.91;56.87;96169.16;5078515;28;20208;-67
2022/03/14 01:23:39;;;;;;;29.27;26.38;;;;;;;-1.92;56.97;96172.09;5096779;28;20201;-67
2022/03/14 01:26:08;;;;;;;32.05;28.92;;;;;;;-1.90;58.11;96169.97;5079156;28;20196;-67
2022/03/14 01:28:35;;;;;;;34.33;31.05;;;;;;;-1.91;58.39;96179.97;5078898;28;20197;-67
2022/03/14 01:31:02;;;;;;;34.13;30.67;;;;;;;-1.97;58.67;96176.34;5078971;28;20197;-67
2022/03/14 01:33:29;;;;;;;32.22;28.95;;;;;;;-1.97;58.74;96176.34;5096467;28;20191;-67
2022/03/14 01:35:57;;;;;;;32.17;28.98;;;;;;;-1.94;58.49;96180.47;5096533;28;20283;-67
2022/03/14 01:38:24;;;;;;;33.95;30.55;;;;;;;-1.90;58.45;96178.88;5096521;28;20181;-67
2022/03/14 01:40:51;;;;;;;32.15;28.95;;;;;;;-1.89;58.46;96185.94;5096458;28;20197;-67
2022/03/14 01:43:18;;;;;;;32.38;29.08;;;;;;;-1.90;58.48;96183.47;5096192;28;20240;-67
2022/03/14 01:45:46;;;;;;;33.03;29.80;;;;;;;-2.02;59.36;96181.69;5078876;28;20203;-67
2022/03/14 01:48:13;;;;;;;33.47;30.13;;;;;;;-2.04;58.73;96183.00;5096232;28;20192;-67
2022/03/14 01:50:40;;;;;;;33.80;30.58;;;;;;;-2.15;58.96;96189.31;5096237;28;20200;-67
2022/03/14 01:53:09;;;;;;;32.53;29.23;;;;;;;-2.21;58.89;96197.34;5078252;28;20200;-67
2022/03/14 01:55:36;;;;;;;33.65;30.15;;;;;;;-2.22;59.14;96194.88;5096007;28;20192;-67
2022/03/14 01:58:03;;;;;;;33.30;30.10;;;;;;;-2.22;58.92;96192.16;5078454;28;20211;-67
2022/03/14 02:00:31;;;;;;;33.65;30.27;;;;;;;-2.19;58.66;96195.19;5096095;28;20216;-67
2022/03/14 02:02:58;;;;;;;32.10;28.88;;;;;;;-2.12;59.15;96213.16;5094711;28;20269;-68
2022/03/14 02:05:25;;;;;;;32.78;29.55;;;;;;;-2.12;59.09;96205.84;5095789;28;20245;-68
2022/03/14 02:07:52;;;;;;;32.08;28.77;;;;;;;-2.12;59.02;96197.75;5095836;28;20193;-68
2022/03/14 02:10:20;;;;;;;30.73;27.90;;;;;;;-2.09;58.94;96205.38;5096188;28;20189;-68
2022/03/14 02:12:47;;;;;;;31.38;28.27;;;;;;;-2.10;58.74;96201.03;5078245;28;20196;-68
2022/03/14 02:15:14;;;;;;;33.05;29.88;;;;;;;-2.09;58.66;96202.66;5077877;28;20207;-68
2022/03/14 02:17:41;;;;;;;33.20;29.90;;;;;;;-2.07;58.09;96205.94;5095639;28;20185;-68
2022/03/14 02:20:11;;;;;;;33.25;30.00;;;;;;;-2.05;57.92;96211.91;5095655;28;20250;-68
2022/03/14 02:22:37;;;;;;;69.63;51.38;;;;;;;-2.10;58.27;96203.72;5077874;28;20212;-68
2022/03/14 02:25:09;;;;;;;103.90;73.13;;;;;;;-2.31;58.24;96212.56;5095728;28;20266;-68
2022/03/14 02:27:37;;;;;;;47.92;42.03;;;;;;;-2.51;58.53;96213.00;5095568;28;20184;-68
2022/03/14 02:30:05;;;;;;;41.33;37.03;;;;;;;-2.56;58.86;96216.44;5077333;28;20204;-68
2022/03/14 02:32:32;;;;;;;39.58;35.25;;;;;;;-2.56;58.69;96224.53;5077761;28;20539;-68
2022/03/14 02:34:58;;;;;;;38.55;34.55;;;;;;;-2.50;58.80;96225.47;5095253;28;20185;-68
2022/03/14 02:37:26;;;;;;;36.92;33.05;;;;;;;-2.47;59.17;96224.97;5095106;28;20290;-68
2022/03/14 02:39:53;;;;;;;36.60;32.92;;;;;;;-2.47;59.01;96228.50;5095498;28;20185;-68
2022/03/14 02:42:20;;;;;;;36.15;32.65;;;;;;;-2.47;59.05;96235.75;5095317;28;20220;-68
2022/03/14 02:44:47;;;;;;;35.13;31.77;;;;;;;-2.54;59.28;96245.91;5093821;28;20227;-68
2022/03/14 02:47:14;;;;;;;36.10;32.53;;;;;;;-2.51;59.66;96240.84;5097828;28;20210;-68
2022/03/14 02:49:41;;;;;;;35.03;31.73;;;;;;;-2.47;59.07;96250.13;5115767;28;20172;-68
2022/03/14 02:52:08;;;;;;;36.45;32.70;;;;;;;-2.44;59.02;96248.78;5097890;28;20196;-68
2022/03/14 02:54:36;;;;;;;36.85;33.25;;;;;;;-2.51;59.62;96254.34;5097494;28;20207;-68
2022/03/14 02:57:04;;;;;;;37.58;33.88;;;;;;;-2.54;59.62;96252.16;5098311;28;20214;-68
2022/03/14 02:59:31;;;;;;;39.25;35.28;;;;;;;-2.51;59.29;96256.22;5097228;28;20191;-67
2022/03/14 03:01:57;;;;;;;39.80;35.75;;;;;;;-2.52;59.47;96257.28;5115608;28;20191;-67
2022/03/14 03:04:24;;;;;;;38.40;34.45;;;;;;;-2.51;59.87;96257.03;5097785;28;20212;-67
2022/03/14 03:06:53;;;;;;;38.42;34.50;;;;;;;-2.46;59.70;96264.44;5097701;28;20232;-67
2022/03/14 03:09:19;;;;;;;40.42;36.25;;;;;;;-2.51;60.09;96261.63;5097567;28;20294;-67
2022/03/14 03:11:48;;;;;;;39.35;35.45;;;;;;;-2.63;59.61;96263.56;5115772;28;20188;-68
2022/03/14 03:14:15;;;;;;;40.47;36.50;;;;;;;-2.72;59.89;96265.84;5098841;28;20206;-68
2022/03/14 03:16:42;;;;;;;41.40;37.30;;;;;;;-2.71;60.19;96265.59;5119619;28;20191;-68
2022/03/14 03:19:09;;;;;;;40.97;36.97;;;;;;;-2.69;60.30;96276.13;5119396;28;20188;-68
2022/03/14 03:21:38;;;;;;;41.10;37.13;;;;;;;-2.65;59.90;96282.72;5101556;28;20199;-68
2022/03/14 03:24:07;;;;;;;40.60;36.50;;;;;;;-2.62;60.22;96276.00;5119380;28;20200;-68
2022/03/14 03:26:34;;;;;;;42.67;38.72;;;;;;;-2.63;59.89;96280.59;5101376;28;20211;-68
2022/03/14 03:29:02;;;;;;;41.67;37.65;;;;;;;-2.62;60.16;96286.81;5119302;28;20180;-68
2022/03/14 03:31:29;;;;;;;42.97;38.78;;;;;;;-2.67;59.95;96290.22;5101393;28;20192;-68
2022/03/14 03:33:56;;;;;;;46.03;41.63;;;;;;;-2.75;60.47;96288.72;5119275;28;20184;-68
2022/03/14 03:36:23;;;;;;;44.97;40.58;;;;;;;-2.77;60.32;96290.84;5101219;28;20315;-68
2022/03/14 03:38:50;;;;;;;43.75;39.45;;;;;;;-2.73;60.38;96291.19;5118894;28;20184;-68
2022/03/14 03:41:17;;;;;;;40.95;36.95;;;;;;;-2.73;60.74;96297.41;5100841;28;20205;-68
2022/03/14 03:43:44;;;;;;;35.90;32.28;;;;;;;-2.69;60.63;96300.44;5101060;28;20246;-68
2022/03/14 03:46:12;;;;;;;33.00;29.83;;;;;;;-2.71;59.72;96292.59;5101100;28;20195;-68
2022/03/14 03:48:39;;;;;;;32.20;29.13;;;;;;;-2.72;60.08;96300.94;5119260;28;20180;-68
2022/03/14 03:51:06;;;;;;;34.67;31.35;;;;;;;-2.66;60.16;96303.47;5100970;28;20214;-67
2022/03/14 03:53:32;;;;;;;35.00;31.63;;;;;;;-2.62;59.47;96309.22;5101183;28;20195;-68
2022/03/14 03:55:59;;;;;;;38.88;35.17;;;;;;;-2.60;60.33;96309.81;5118903;28;20196;-68
2022/03/14 03:58:26;;;;;;;38.78;34.95;;;;;;;-2.66;59.89;96308.88;5118456;28;20190;-67
2022/03/14 04:00:53;;;;;;;38.83;35.03;;;;;;;-2.74;60.23;96308.44;5118645;28;20190;-67
2022/03/14 04:03:22;;;;;;;37.85;34.10;;;;;;;-2.84;60.28;96306.34;5118679;28;20211;-67
2022/03/14 04:05:49;;;;;;;37.72;33.95;;;;;;;-2.86;60.44;96310.38;5101611;28;20184;-67
2022/03/14 04:08:16;;;;;;;37.42;33.65;;;;;;;-2.89;59.93;96310.84;5119009;28;20176;-67
2022/03/14 04:10:43;;;;;;;35.60;32.03;;;;;;;-2.97;60.25;96318.25;5100586;28;20211;-67
2022/03/14 04:13:14;;;;;;;34.55;31.23;;;;;;;-2.97;60.33;96318.25;5118385;28;20233;-67
2022/03/14 04:15:50;;;;;;;35.15;31.75;;;;;;;-2.96;60.49;96327.97;5118305;28;20210;-67
2022/03/14 04:18:18;;;;;;;34.45;31.15;;;;;;;-2.95;60.51;96321.50;5100430;28;20198;-67
2022/03/14 04:20:47;;;;;;;36.08;32.55;;;;;;;-3.00;60.14;96328.69;5100495;28;20200;-67
2022/03/14 04:23:14;;;;;;;35.83;32.20;;;;;;;-3.00;60.71;96328.69;5100047;28;20212;-67
2022/03/14 04:25:41;;;;;;;35.25;31.75;;;;;;;-2.95;60.16;96329.59;5117150;28;20180;-67
2022/03/14 04:28:08;;;;;;;35.45;31.85;;;;;;;-2.91;59.99;96327.25;5117872;28;20195;-67
2022/03/14 04:30:35;;;;;;;35.08;31.58;;;;;;;-2.87;60.18;96330.31;5100319;28;20279;-67
2022/03/14 04:33:02;;;;;;;35.90;32.30;;;;;;;-2.85;59.95;96339.00;5100446;28;20198;-67
2022/03/14 04:35:29;;;;;;;34.08;30.77;;;;;;;-2.86;60.22;96338.19;5117833;28;20199;-67
2022/03/14 04:37:57;;;;;;;34.88;31.38;;;;;;;-2.88;60.34;96343.00;5118255;28;20187;-67
2022/03/14 04:40:24;;;;;;;37.08;33.47;;;;;;;-2.87;60.20;96339.22;5118121;28;20180;-67
2022/03/14 04:42:51;;;;;;;35.10;31.50;;;;;;;-2.85;60.17;96355.19;5099668;28;20219;-68
2022/03/14 04:45:18;;;;;;;36.55;33.08;;;;;;;-2.94;60.28;96355.56;5079514;28;20223;-68
2022/03/14 04:47:44;;;;;;;38.53;34.85;;;;;;;-3.14;60.56;96355.09;5079717;28;20270;-67
2022/03/14 04:50:12;;;;;;;40.63;36.28;;;;;;;-3.21;60.83;96359.78;5079977;28;20534;-68
2022/03/14 04:52:39;;;;;;;40.40;36.50;;;;;;;-3.21;60.80;96363.31;5097178;28;20344;-67
2022/03/14 04:55:08;;;;;;;38.17;34.58;;;;;;;-3.18;61.03;96362.84;5079760;28;20200;-68
2022/03/14 04:57:34;;;;;;;39.33;35.42;;;;;;;-3.10;60.57;96377.03;5097272;28;20274;-68
2022/03/14 05:00:01;;;;;;;38.83;34.85;;;;;;;-3.05;60.40;96375.31;5079369;28;20207;-67
2022/03/14 05:02:28;;;;;;;39.85;35.78;;;;;;;-2.97;60.66;96383.03;5096857;28;20526;-70
2022/03/14 05:04:55;;;;;;;39.42;35.63;;;;;;;-2.92;60.73;96390.41;5097152;28;20204;-70
2022/03/14 05:07:22;;;;;;;41.42;37.30;;;;;;;-2.91;60.98;96392.06;5078758;28;20746;-69
2022/03/14 05:09:48;;;;;;;41.55;37.65;;;;;;;-2.87;60.76;96395.91;5096367;28;20452;-67
2022/03/14 05:12:17;;;;;;;42.70;38.17;;;;;;;-2.89;60.99;96394.53;5097035;28;20212;-67
2022/03/14 05:14:43;;;;;;;42.17;37.95;;;;;;;-2.88;61.62;96398.88;5079668;28;20211;-72
2022/03/14 05:17:10;;;;;;;41.95;37.50;;;;;;;-2.86;61.33;96402.16;5079233;28;20194;-72
2022/03/14 05:19:38;;;;;;;42.78;38.63;;;;;;;-2.94;60.56;96403.34;5096688;28;20446;-69
2022/03/14 05:22:05;;;;;;;41.92;37.75;;;;;;;-2.98;60.98;96407.53;5079180;28;20213;-67
2022/03/14 05:24:32;;;;;;;42.65;38.55;;;;;;;-2.95;61.28;96416.00;5096601;28;20204;-67
2022/03/14 05:26:58;;;;;;;42.25;38.17;;;;;;;-2.88;61.02;96410.50;5088125;28;20203;-67
2022/03/14 05:29:26;;;;;;;44.45;40.15;;;;;;;-2.80;61.18;96417.41;5078684;28;20527;-67
2022/03/14 05:31:53;;;;;;;42.65;38.35;;;;;;;-2.74;60.66;96424.56;5096623;28;20195;-67
2022/03/14 05:34:20;;;;;;;42.65;38.55;;;;;;;-2.69;60.32;96427.38;5078638;28;20418;-65
2022/03/14 05:36:47;;;;;;;42.97;38.97;;;;;;;-2.63;60.28;96429.16;5096280;28;20204;-66
2022/03/14 05:39:14;;;;;;;44.58;40.42;;;;;;;-2.57;60.30;96436.31;5078748;28;20192;-66
2022/03/14 05:41:41;;;;;;;44.15;39.97;;;;;;;-2.53;59.79;96433.97;5078491;28;20203;-65
2022/03/14 05:44:08;;;;;;;43.17;39.17;;;;;;;-2.47;59.03;96441.94;5089548;28;20263;-65
2022/03/14 05:46:36;;;;;;;44.70;40.30;;;;;;;-2.38;59.12;96438.88;5116777;28;20184;-66
2022/03/14 05:49:04;;;;;;;43.85;39.55;;;;;;;-2.30;59.07;96435.78;5116607;28;20197;-66
2022/03/14 05:51:32;;;;;;;41.75;37.60;;;;;;;-2.20;58.16;96444.94;5116239;28;20179;-67
2022/03/14 05:54:00;;;;;;;42.10;38.15;;;;;;;-2.12;57.62;96445.63;5098909;28;20176;-66
2022/03/14 05:56:27;;;;;;;41.45;37.42;;;;;;;-2.07;56.65;96446.56;5116394;28;20196;-66
2022/03/14 05:58:54;;;;;;;45.83;41.55;;;;;;;-1.99;56.19;96456.19;5116370;28;20192;-66
2022/03/14 06:01:22;;;;;;;46.90;42.30;;;;;;;-1.94;55.94;96457.09;5115895;28;20610;-66
2022/03/14 06:03:50;;;;;;;49.22;44.47;;;;;;;-1.87;56.06;96450.72;5116187;28;20218;-66
2022/03/14 06:06:17;;;;;;;54.85;49.15;;;;;;;-1.83;55.63;96451.88;5098396;28;20200;-66
2022/03/14 06:08:44;;;;;;;53.60;48.40;;;;;;;-1.76;55.61;96444.44;5116420;28;20192;-66
2022/03/14 06:11:11;;;;;;;50.42;45.72;;;;;;;-1.70;55.31;96449.72;5116081;28;20199;-67
2022/03/14 06:13:40;;;;;;;50.95;45.67;;;;;;;-1.63;55.07;96457.69;5098468;28;20207;-66
2022/03/14 06:16:07;;;;;;;47.03;42.50;;;;;;;-1.54;55.44;96458.13;5098191;28;20252;-66
2022/03/14 06:18:33;;;;;;;48.97;44.10;;;;;;;-1.48;55.31;96463.38;5115819;28;20191;-66
2022/03/14 06:21:02;;;;;;;42.40;38.28;;;;;;;-1.44;54.54;96461.00;5097912;28;20206;-66
2022/03/14 06:23:29;;;;;;;42.15;38.15;;;;;;;-1.40;54.15;96466.75;5116104;28;20204;-67
2022/03/14 06:25:56;;;;;;;48.75;44.05;;;;;;;-1.36;54.60;96467.91;5097843;28;20207;-66
2022/03/14 06:28:23;;;;;;;50.13;45.22;;;;;;;-1.29;54.48;96465.88;5115815;28;20188;-67
2022/03/14 06:30:50;;;;;;;38.47;34.70;;;;;;;-1.21;53.63;96469.00;5098083;28;20200;-66
2022/03/14 06:33:17;;;;;;;37.67;34.08;;;;;;;-1.11;53.66;96472.97;5115802;28;20191;-67
2022/03/14 06:35:43;;;;;;;28.00;25.45;;;;;;;-1.03;53.14;96467.13;5115524;28;20514;-66
2022/03/14 06:38:12;;;;;;;26.75;24.25;;;;;;;-1.01;52.77;96476.66;5098327;28;20191;-66
2022/03/14 06:40:41;;;;;;;25.95;23.40;;;;;;;-0.88;52.26;96483.63;5115313;28;20490;-67
2022/03/14 06:43:08;;;;;;;26.50;23.70;;;;;;;-0.80;52.78;96472.41;5095267;28;20621;-67
2022/03/14 06:45:38;;;;;;;25.90;23.20;;;;;;;-0.70;52.22;96482.56;5095360;28;20254;-67
2022/03/14 06:48:05;;;;;;;27.77;25.13;;;;;;;-0.65;52.85;96484.56;5093855;28;20884;-68
2022/03/14 06:50:33;;;;;;;30.13;27.33;;;;;;;-0.60;53.16;96485.44;5095457;28;20196;-70
2022/03/14 06:52:59;;;;;;;32.00;28.67;;;;;;;-0.52;52.77;96489.63;5095733;28;20184;-69
2022/03/14 06:55:28;;;;;;;24.75;22.35;;;;;;;-0.42;52.68;96488.97;5095554;28;20874;-69
2022/03/14 06:57:55;;;;;;;23.98;21.58;;;;;;;-0.35;51.82;96489.59;5077160;28;20275;-69
2022/03/14 07:00:23;;;;;;;22.67;20.48;;;;;;;-0.23;51.03;96490.31;5095404;28;20518;-68
2022/03/14 07:02:49;;;;;;;22.98;20.90;;;;;;;-0.16;50.73;96488.25;5077315;28;20270;-69
2022/03/14 07:05:19;;;;;;;24.10;21.80;;;;;;;-0.10;49.97;96497.28;5095220;28;20208;-68
2022/03/14 07:07:47;;;;;;;25.45;22.88;;;;;;;-0.03;48.98;96495.22;5095512;28;20238;-68
2022/03/14 07:10:14;;;;;;;31.63;28.52;;;;;;;0.07;49.69;96495.31;5095401;28;20206;-68
2022/03/14 07:12:46;;;;;;;34.80;31.30;;;;;;;0.10;49.47;96497.53;5095086;28;20185;-69
2022/03/14 07:15:14;;;;;;;35.65;32.13;;;;;;;0.19;49.08;96496.03;5077163;28;20295;-68
2022/03/14 07:17:41;;;;;;;35.53;32.03;;;;;;;0.35;49.81;96498.94;5094902;28;20196;-68
2022/03/14 07:20:09;;;;;;;34.17;30.77;;;;;;;0.48;49.60;96493.94;5095265;28;20196;-68
2022/03/14 07:22:49;;;;;;;29.80;26.80;;;;;;;0.66;49.74;96506.38;5077636;28;20544;-68
2022/03/14 07:25:19;;;;;;;31.60;28.35;;;;;;;0.72;48.71;96504.50;5077285;28;20204;-69
2022/03/14 07:27:47;;;;;;;31.13;28.25;;;;;;;0.89;49.54;96504.41;5077684;28;20548;-68
2022/03/14 07:30:14;;;;;;;34.17;30.67;;;;;;;1.04;49.04;96504.56;5077329;28;20622;-68
2022/03/14 07:32:41;;;;;;;35.33;31.83;;;;;;;1.22;49.15;96505.28;5077211;28;20196;-68
2022/03/14 07:35:09;;;;;;;36.88;33.28;;;;;;;1.32;49.28;96503.47;5094815;28;20245;-69
2022/03/14 07:37:36;;;;;;;36.17;32.55;;;;;;;1.40;49.02;96500.25;5077551;28;20293;-69
2022/03/14 07:40:03;;;;;;;38.97;35.17;;;;;;;1.50;48.13;96504.97;5077049;28;20198;-69
2022/03/14 07:42:30;;;;;;;40.55;36.55;;;;;;;1.59;47.93;96505.28;5077449;28;20204;-68
2022/03/14 07:44:59;;;;;;;41.78;37.42;;;;;;;1.67;48.17;96505.66;5068624;28;20242;-68
2022/03/14 07:47:26;;;;;;;41.60;37.15;;;;;;;1.83;48.11;96509.28;5094641;28;20196;-68
2022/03/14 07:49:53;;;;;;;41.70;37.35;;;;;;;1.99;48.13;96509.38;5077199;28;20238;-69
2022/03/14 07:52:20;;;;;;;39.65;35.92;;;;;;;2.07;48.64;96500.69;5077294;28;20199;-68
2022/03/14 07:54:47;;;;;;;40.20;36.33;;;;;;;2.06;47.84;96499.88;5095048;28;20701;-68
2022/03/14 07:57:14;;;;;;;36.67;33.28;;;;;;;2.14;46.68;96502.13;5076732;28;20206;-68
2022/03/14 07:59:40;;;;;;;33.83;30.58;;;;;;;2.17;46.90;96503.47;5077854;28;20538;-70
2022/03/14 08:02:09;;;;;;;35.88;32.08;;;;;;;2.30;47.27;96500.28;5098795;28;20189;-68
2022/03/14 08:04:37;;;;;;;31.80;28.92;;;;;;;2.39;45.61;96503.31;5080639;28;20231;-69
2022/03/14 08:07:04;;;;;;;30.95;27.98;;;;;;;2.50;45.38;96493.28;5098893;28;20196;-69
2022/03/14 08:09:31;;;;;;;30.38;27.67;;;;;;;2.48;45.06;96501.72;5080666;28;20639;-69
2022/03/14 08:12:00;;;;;;;29.23;26.40;;;;;;;2.51;45.73;96495.75;5089684;28;20246;-69
2022/03/14 08:14:27;;;;;;;28.98;26.20;;;;;;;2.68;44.84;96502.88;5080562;28;20291;-69
2022/03/14 08:16:54;;;;;;;28.40;25.77;;;;;;;2.81;43.87;96500.47;5098223;28;20192;-69
2022/03/14 08:19:22;;;;;;;29.13;26.27;;;;;;;2.99;44.99;96498.31;5098220;28;20200;-70
2022/03/14 08:21:49;;;;;;;30.27;27.27;;;;;;;2.96;44.89;96494.22;5080161;28;20196;-68
2022/03/14 08:24:15;;;;;;;29.10;26.25;;;;;;;3.09;43.90;96501.06;5080319;28;20212;-67
2022/03/14 08:26:43;;;;;;;32.25;28.85;;;;;;;2.94;44.72;96499.16;5098193;28;20185;-68
2022/03/14 08:29:09;;;;;;;31.55;28.27;;;;;;;3.17;45.16;96500.53;5080233;28;20199;-68
2022/03/14 08:31:36;;;;;;;30.85;27.83;;;;;;;3.25;43.29;96501.91;5080439;28;20208;-67
2022/03/14 08:34:03;;;;;;;30.60;27.50;;;;;;;3.48;43.52;96508.72;5097949;28;20189;-68
2022/03/14 08:36:32;;;;;;;30.25;27.35;;;;;;;3.69;43.78;96498.63;5079773;28;20196;-67
2022/03/14 08:38:59;;;;;;;35.60;31.98;;;;;;;3.82;43.42;96496.16;5097718;28;20212;-67
2022/03/14 08:41:25;;;;;;;38.90;34.88;;;;;;;3.96;43.85;96499.16;5079955;28;20203;-68
2022/03/14 08:43:52;;;;;;;39.10;35.25;;;;;;;4.20;43.28;96491.16;5088408;28;20563;-68
2022/03/14 08:46:19;;;;;;;38.15;34.45;;;;;;;4.28;42.95;96492.50;5100633;28;20195;-68
2022/03/14 08:48:46;;;;;;;33.13;29.58;;;;;;;4.43;43.66;96494.34;5100418;28;20225;-68
2022/03/14 08:51:13;;;;;;;26.33;22.63;;;;;;;4.48;42.83;96492.44;5118326;28;20194;-67
2022/03/14 08:53:41;;;;;;;27.45;24.65;;;;;;;4.56;41.56;96502.78;5100052;28;20211;-68
2022/03/14 08:56:08;;;;;;;29.88;26.95;;;;;;;4.42;42.31;96496.28;5118527;28;20190;-67
2022/03/14 08:58:34;;;;;;;27.35;24.63;;;;;;;4.43;42.53;96497.94;5100530;28;20203;-67
2022/03/14 09:01:01;;;;;;;24.20;21.70;;;;;;;4.56;41.71;96501.97;5118163;28;20195;-67
2022/03/14 09:03:28;;;;;;;23.95;21.65;;;;;;;4.63;41.46;96496.19;5117707;28;20191;-67
2022/03/14 09:05:56;;;;;;;25.80;21.08;;;;;;;4.79;40.30;96490.41;5100318;28;20545;-67
2022/03/14 09:08:23;;;;;;;24.35;21.85;;;;;;;4.94;41.48;96486.75;5118056;28;20225;-68
2022/03/14 09:10:53;;;;;;;25.20;22.55;;;;;;;4.97;40.86;96479.88;5117443;28;20184;-68
2022/03/14 09:13:21;;;;;;;23.60;20.90;;;;;;;5.01;40.89;96483.69;5099446;28;20196;-67
2022/03/14 09:15:48;;;;;;;20.35;18.45;;;;;;;5.05;39.72;96480.13;5098278;28;20420;-67
2022/03/14 09:18:15;;;;;;;19.70;17.67;;;;;;;5.14;40.17;96485.81;5099681;28;20279;-67
2022/03/14 09:20:42;;;;;;;17.95;16.15;;;;;;;5.30;40.12;96481.03;5117305;28;20188;-67
2022/03/14 09:23:10;;;;;;;15.05;13.75;;;;;;;5.42;38.96;96476.03;5117111;28;20209;-67
2022/03/14 09:25:37;;;;;;;15.80;14.27;;;;;;;5.54;39.52;96472.91;5099176;28;20225;-67
2022/03/14 09:28:05;;;;;;;18.23;16.33;;;;;;;5.44;38.80;96473.00;5117149;28;20447;-68
2022/03/14 09:30:32;;;;;;;16.30;14.35;;;;;;;5.61;39.55;96465.19;5117062;28;20617;-67
2022/03/14 09:32:59;;;;;;;16.20;14.50;;;;;;;5.92;38.62;96465.78;5117022;28;20186;-67
2022/03/14 09:35:26;;;;;;;14.98;13.48;;;;;;;6.07;36.93;96464.78;5116882;28;20282;-67
2022/03/14 09:37:54;;;;;;;14.35;12.85;;;;;;;6.23;36.85;96463.50;5099588;28;20203;-67
2022/03/14 09:40:21;;;;;;;13.52;12.32;;;;;;;6.32;36.92;96468.34;5099227;28;20203;-66
2022/03/14 09:42:50;;;;;;;12.48;11.38;;;;;;;6.43;36.96;96465.22;5116946;28;20195;-66
2022/03/14 09:45:19;;;;;;;13.18;11.80;;;;;;;6.48;35.66;96476.09;5116315;28;20204;-66
2022/03/14 09:47:47;;;;;;;6.97;6.25;;;;;;;6.30;33.67;96474.13;5099301;28;20220;-67
2022/03/14 09:50:16;;;;;;;7.95;7.13;;;;;;;6.30;35.04;96473.31;5098899;28;20563;-66
2022/03/14 09:52:44;;;;;;;8.43;7.63;;;;;;;6.34;34.28;96468.88;5098405;28;20221;-67
2022/03/14 09:55:12;;;;;;;9.85;8.73;;;;;;;6.17;33.92;96480.28;5098498;28;20519;-68
2022/03/14 09:57:39;;;;;;;8.27;7.55;;;;;;;6.21;35.21;96463.00;5098392;28;20531;-67
2022/03/14 10:00:07;;;;;;;7.57;6.80;;;;;;;6.58;34.71;96464.22;5116329;28;20183;-66
2022/03/14 10:02:37;;;;;;;8.65;7.85;;;;;;;6.84;34.53;96459.19;5116623;28;20184;-66
2022/03/14 10:05:07;;;;;;;9.40;8.40;;;;;;;6.85;33.19;96465.50;5098656;28;20208;-66
2022/03/14 10:07:34;;;;;;;10.60;9.52;;;;;;;6.84;34.60;96466.63;5116324;28;20576;-66
2022/03/14 10:10:01;;;;;;;9.13;8.23;;;;;;;6.83;34.17;96463.06;5116361;28;20199;-66
2022/03/14 10:12:28;;;;;;;9.85;8.13;;;;;;;6.81;34.41;96459.78;5098687;28;20206;-66
2022/03/14 10:14:55;;;;;;;8.40;7.70;;;;;;;7.08;33.93;96458.31;5097880;28;20204;-67
2022/03/14 10:17:21;;;;;;;8.70;7.93;;;;;;;7.37;34.97;96461.72;5116040;28;20210;-67
2022/03/14 10:19:56;;;;;;;8.55;7.75;;;;;;;7.38;34.12;96462.53;5098848;28;20200;-67
2022/03/14 10:22:23;;;;;;;8.55;7.85;;;;;;;7.29;33.64;96461.56;5116206;28;20179;-67
2022/03/14 10:24:54;;;;;;;8.45;7.63;;;;;;;7.26;33.64;96462.97;5115094;28;20262;-66
2022/03/14 10:27:21;;;;;;;7.80;7.15;;;;;;;7.23;32.68;96458.91;5098488;28;20192;-66
2022/03/14 10:29:49;;;;;;;8.45;7.57;;;;;;;7.51;34.28;96453.53;5115679;28;20546;-69
2022/03/14 10:32:28;;;;;;;10.98;9.90;;;;;;;7.80;32.69;96453.31;5115605;28;20270;-66
2022/03/14 10:35:00;;;;;;;8.13;7.32;;;;;;;7.87;32.97;96441.94;5098254;28;20203;-67
2022/03/14 10:37:28;;;;;;;7.68;6.75;;;;;;;7.73;32.12;96458.38;5098253;28;20202;-66
2022/03/14 10:40:00;;;;;;;7.15;6.45;;;;;;;7.95;32.60;96450.31;5098697;28;20191;-66
2022/03/14 10:42:27;;;;;;;8.35;6.63;;;;;;;8.34;32.63;96437.19;5116900;28;20260;-66
2022/03/14 10:44:55;;;;;;;6.55;6.05;;;;;;;8.76;32.74;96432.53;5098174;28;20235;-66
2022/03/14 10:47:25;;;;;;;9.00;8.02;;;;;;;8.72;32.91;96448.03;5115904;28;20492;-67
2022/03/14 10:49:52;;;;;;;6.22;5.72;;;;;;;8.16;30.13;96447.16;5116386;28;20188;-66
2022/03/14 10:52:21;;;;;;;7.32;6.63;;;;;;;8.38;31.84;96441.81;5098994;28;20195;-67
2022/03/14 10:54:48;;;;;;;5.97;5.32;;;;;;;8.57;31.29;96444.47;5116160;28;20206;-66
2022/03/14 10:57:18;;;;;;;6.53;5.93;;;;;;;8.38;30.53;96433.56;5098716;28;20290;-66
2022/03/14 10:59:46;;;;;;;6.95;6.15;;;;;;;8.56;31.88;96436.50;5116649;28;20180;-66
2022/03/14 11:02:17;;;;;;;5.72;5.22;;;;;;;8.77;31.64;96436.91;5098519;28;20210;-66
2022/03/14 11:04:45;;;;;;;6.18;5.68;;;;;;;9.03;31.69;96434.41;5116129;28;20211;-66
2022/03/14 11:07:13;;;;;;;6.25;5.75;;;;;;;9.20;29.95;96425.50;5116347;28;20187;-67
2022/03/14 11:09:43;;;;;;;8.00;6.25;;;;;;;9.03;31.45;96432.47;5098530;28;20202;-66
2022/03/14 11:12:11;;;;;;;8.90;7.30;;;;;;;9.11;29.97;96437.25;5098841;28;20200;-67
2022/03/14 11:14:38;;;;;;;6.93;6.32;;;;;;;9.35;29.95;96428.69;5116058;28;20270;-66
2022/03/14 11:17:14;;;;;;;7.00;6.28;;;;;;;9.73;30.34;96421.97;5098210;28;20207;-66
2022/03/14 11:19:41;;;;;;;7.82;7.13;;;;;;;9.53;28.90;96432.41;5098401;28;20274;-66
2022/03/14 11:22:11;;;;;;;7.38;6.78;;;;;;;9.19;30.36;96429.34;5115774;28;20192;-66